Time;durP1;ratioP1;P1;durP2;ratioP2;P2;SDS_P1;SDS_P2;PMS_P1;PMS_P2;Temp;Humidity;BMP_temperature;BMP_pressure;BME280_temperature;BME280_humidity;BME280_pressure;Samples;Min_cycle;Max_cycle;Signal;HPM_P1;HPM_P2
2020/12/10 00:00:22;;;;;;;85.13;23.80;;;6.80;91.90;;;;;;5006427;28;20124;-56
2020/12/10 00:02:48;;;;;;;99.95;24.25;;;6.80;91.90;;;;;;5008517;28;20042;-57
2020/12/10 00:05:13;;;;;;;96.47;24.38;;;6.80;91.90;;;;;;5006795;28;20387;-56
2020/12/10 00:07:39;;;;;;;79.55;24.15;;;6.80;91.90;;;;;;5008443;28;20482;-56
2020/12/10 00:10:05;;;;;;;61.55;21.80;;;6.70;91.90;;;;;;5007679;28;20033;-56
2020/12/10 00:12:31;;;;;;;97.63;24.80;;;6.70;91.90;;;;;;5001466;28;20053;-56
2020/12/10 00:14:57;;;;;;;88.03;23.13;;;6.70;91.90;;;;;;4988854;28;20030;-59
2020/12/10 00:17:31;;;;;;;82.80;22.63;;;6.70;91.90;;;;;;5022733;28;20470;-56
2020/12/10 00:19:57;;;;;;;74.10;22.30;;;6.70;91.90;;;;;;5008248;28;20165;-56
2020/12/10 00:22:25;;;;;;;74.35;22.25;;;6.70;91.90;;;;;;5007011;28;20416;-56
2020/12/10 00:24:51;;;;;;;87.53;22.15;;;6.60;91.90;;;;;;5005903;28;20030;-55
2020/12/10 00:27:26;;;;;;;74.72;21.33;;;6.60;91.90;;;;;;5006451;28;20405;-56
2020/12/10 00:29:51;;;;;;;76.20;21.70;;;6.60;91.90;;;;;;4990418;28;20029;-56
2020/12/10 00:32:17;;;;;;;63.95;20.67;;;6.60;91.90;;;;;;5007418;28;20261;-56
2020/12/10 00:34:44;;;;;;;67.15;21.95;;;6.60;91.90;;;;;;4994373;28;20036;-56
2020/12/10 00:37:10;;;;;;;62.00;19.67;;;6.60;91.90;;;;;;5023733;28;20025;-56
2020/12/10 00:39:35;;;;;;;63.13;19.80;;;6.60;92.00;;;;;;5005116;28;20389;-56
2020/12/10 00:42:02;;;;;;;70.07;20.83;;;6.50;91.90;;;;;;4990144;28;20029;-56
2020/12/10 00:44:27;;;;;;;63.40;20.90;;;6.50;91.90;;;;;;5011175;28;20026;-56
2020/12/10 00:46:53;;;;;;;73.78;21.30;;;6.50;91.90;;;;;;4990268;28;20041;-56
2020/12/10 00:49:21;;;;;;;61.03;19.92;;;6.50;91.90;;;;;;5005308;28;20095;-56
2020/12/10 00:51:47;;;;;;;68.63;20.23;;;6.50;91.90;;;;;;5009087;28;20128;-56
2020/12/10 00:54:13;;;;;;;60.72;18.60;;;6.50;91.90;;;;;;5006579;28;20076;-55
2020/12/10 00:56:38;;;;;;;63.20;19.70;;;6.50;91.90;;;;;;4990333;28;20034;-56
2020/12/10 00:59:03;;;;;;;53.65;19.17;;;6.50;91.90;;;;;;5007319;28;20045;-56
2020/12/10 01:01:29;;;;;;;57.33;18.25;;;6.50;91.90;;;;;;5008072;28;20029;-56
2020/12/10 01:03:55;;;;;;;57.42;18.90;;;6.40;91.90;;;;;;4953800;28;20201;-56
2020/12/10 01:06:20;;;;;;;55.22;18.45;;;6.40;91.90;;;;;;5005296;28;20082;-57
2020/12/10 01:08:46;;;;;;;56.25;17.80;;;6.40;91.90;;;;;;5006535;28;20038;-56
2020/12/10 01:11:11;;;;;;;63.85;18.80;;;6.40;91.90;;;;;;5008314;28;20034;-56
2020/12/10 01:13:37;;;;;;;53.15;18.08;;;6.40;91.80;;;;;;5009138;28;20029;-56
2020/12/10 01:16:02;;;;;;;43.03;16.77;;;6.40;91.90;;;;;;4990089;28;20053;-56
2020/12/10 01:18:28;;;;;;;45.85;16.20;;;6.40;91.90;;;;;;4990790;28;20417;-56
2020/12/10 01:20:53;;;;;;;45.88;18.30;;;6.40;91.90;;;;;;5009366;28;20382;-56
2020/12/10 01:23:19;;;;;;;61.15;17.48;;;6.40;91.90;;;;;;5007296;28;20037;-56
2020/12/10 01:25:44;;;;;;;46.17;17.35;;;6.30;91.80;;;;;;5007656;28;20068;-57
2020/12/10 01:28:10;;;;;;;50.28;17.13;;;6.30;91.90;;;;;;5007951;28;20034;-56
2020/12/10 01:30:35;;;;;;;60.25;19.42;;;6.30;91.80;;;;;;5004758;28;20417;-57
2020/12/10 01:33:01;;;;;;;40.30;17.65;;;6.30;91.90;;;;;;5005948;28;20128;-55
2020/12/10 01:35:26;;;;;;;48.95;16.88;;;6.30;91.80;;;;;;5008889;28;20474;-56
2020/12/10 01:37:52;;;;;;;41.53;15.63;;;6.30;91.80;;;;;;4992201;28;20034;-57
2020/12/10 01:40:17;;;;;;;46.13;16.92;;;6.30;91.90;;;;;;5022364;28;20109;-57
2020/12/10 01:42:43;;;;;;;45.35;16.60;;;6.20;91.80;;;;;;5004982;28;20034;-57
2020/12/10 01:45:08;;;;;;;47.72;17.48;;;6.20;91.80;;;;;;5004242;28;20038;-56
2020/12/10 01:47:34;;;;;;;49.97;17.23;;;6.20;91.80;;;;;;5007050;28;20022;-56
2020/12/10 01:50:00;;;;;;;32.70;14.35;;;6.30;91.80;;;;;;5009651;28;20522;-55
2020/12/10 01:52:25;;;;;;;37.55;16.30;;;6.20;91.80;;;;;;5026363;28;20058;-56
2020/12/10 01:54:51;;;;;;;44.00;16.30;;;6.20;91.70;;;;;;5008212;28;20029;-56
2020/12/10 01:57:16;;;;;;;42.03;16.63;;;6.20;91.80;;;;;;5001736;28;20029;-56
2020/12/10 01:59:42;;;;;;;33.40;15.07;;;6.20;91.80;;;;;;5009460;28;20076;-55
2020/12/10 02:02:07;;;;;;;50.78;16.40;;;6.20;91.80;;;;;;5006526;28;20044;-57
2020/12/10 02:04:34;;;;;;;42.80;16.67;;;6.10;91.80;;;;;;5006618;28;20046;-57
2020/12/10 02:07:00;;;;;;;51.97;16.63;;;6.10;91.80;;;;;;5006159;28;20032;-56
2020/12/10 02:09:26;;;;;;;46.72;16.52;;;6.10;91.80;;;;;;5010102;28;20049;-56
2020/12/10 02:11:52;;;;;;;31.20;14.90;;;6.10;91.80;;;;;;5009106;28;20500;-56
2020/12/10 02:14:17;;;;;;;36.17;15.57;;;6.10;91.80;;;;;;5009160;28;20036;-55
2020/12/10 02:16:43;;;;;;;41.10;15.10;;;6.10;91.80;;;;;;5006738;28;20109;-56
2020/12/10 02:19:09;;;;;;;37.97;15.65;;;6.10;91.80;;;;;;5007565;28;20065;-56
2020/12/10 02:21:34;;;;;;;34.88;16.13;;;6.10;91.80;;;;;;5004211;28;20694;-56
2020/12/10 02:24:00;;;;;;;38.15;15.82;;;6.10;91.80;;;;;;4994458;28;20342;-55
2020/12/10 02:26:26;;;;;;;33.40;14.70;;;6.10;91.70;;;;;;5007987;28;20134;-56
2020/12/10 02:28:55;;;;;;;39.47;15.00;;;6.10;92.00;;;;;;5006656;28;20057;-56
2020/12/10 02:31:22;;;;;;;37.22;15.45;;;6.10;91.70;;;;;;4989961;28;20026;-57
2020/12/10 02:33:47;;;;;;;40.75;15.98;;;6.10;91.70;;;;;;5020307;28;20026;-56
2020/12/10 02:36:13;;;;;;;33.22;13.85;;;6.10;91.60;;;;;;5005724;28;20074;-57
2020/12/10 02:38:38;;;;;;;33.25;14.20;;;6.10;91.70;;;;;;4988993;28;20029;-56
2020/12/10 02:41:04;;;;;;;29.95;14.05;;;6.00;91.60;;;;;;5005344;28;20428;-56
2020/12/10 02:43:30;;;;;;;30.30;13.63;;;6.00;91.60;;;;;;4990714;28;20026;-57
2020/12/10 02:45:55;;;;;;;30.08;14.35;;;6.00;91.60;;;;;;4988346;28;20088;-56
2020/12/10 02:48:21;;;;;;;27.20;14.13;;;6.00;91.60;;;;;;5004384;28;20026;-57
2020/12/10 02:50:46;;;;;;;33.58;14.27;;;6.00;91.70;;;;;;5004712;28;20484;-57
2020/12/10 02:53:12;;;;;;;34.10;14.82;;;6.00;91.70;;;;;;5018352;28;20061;-57
2020/12/10 02:55:37;;;;;;;31.42;13.60;;;6.00;91.60;;;;;;5007997;28;20040;-55
2020/12/10 02:58:03;;;;;;;42.65;14.38;;;6.00;91.60;;;;;;5008875;28;20034;-57
2020/12/10 03:00:28;;;;;;;25.90;12.63;;;6.00;91.60;;;;;;5006650;28;20421;-56
2020/12/10 03:02:54;;;;;;;37.38;14.63;;;5.90;91.70;;;;;;4987161;28;20049;-56
2020/12/10 03:05:19;;;;;;;28.15;13.48;;;5.90;91.70;;;;;;5001093;28;20034;-56
2020/12/10 03:07:45;;;;;;;30.52;12.60;;;5.90;91.70;;;;;;5006392;28;20022;-56
2020/12/10 03:10:10;;;;;;;38.17;14.68;;;5.90;91.70;;;;;;5007846;28;20029;-57
2020/12/10 03:12:36;;;;;;;27.70;14.30;;;5.90;91.70;;;;;;4990109;28;20490;-56
2020/12/10 03:15:02;;;;;;;29.08;14.27;;;5.90;91.70;;;;;;4984298;28;20575;-56
2020/12/10 03:17:27;;;;;;;35.17;13.20;;;5.90;91.70;;;;;;5024036;28;20044;-56
2020/12/10 03:19:53;;;;;;;31.45;13.52;;;5.90;91.70;;;;;;5009823;28;20037;-56
2020/12/10 03:22:18;;;;;;;32.30;12.27;;;5.90;91.70;;;;;;5003431;28;20029;-56
2020/12/10 03:24:44;;;;;;;31.30;13.13;;;5.80;91.60;;;;;;5010410;28;20026;-57
2020/12/10 03:27:09;;;;;;;26.55;12.82;;;5.90;91.70;;;;;;5008754;28;20054;-56
2020/12/10 03:29:35;;;;;;;26.35;12.70;;;5.80;91.70;;;;;;5011377;28;20041;-56
2020/12/10 03:32:01;;;;;;;30.92;13.32;;;5.90;91.70;;;;;;5007693;28;20080;-57
2020/12/10 03:34:28;;;;;;;22.63;12.38;;;5.80;91.70;;;;;;4996499;28;20052;-56
2020/12/10 03:36:54;;;;;;;24.67;12.95;;;5.80;91.70;;;;;;5009496;28;20030;-56
2020/12/10 03:39:21;;;;;;;35.70;13.32;;;5.80;91.70;;;;;;5007287;28;20080;-57
2020/12/10 03:41:46;;;;;;;31.00;12.75;;;5.80;91.70;;;;;;5003246;28;20151;-57
2020/12/10 03:44:12;;;;;;;31.83;12.75;;;5.80;91.70;;;;;;5009143;28;20501;-55
2020/12/10 03:46:38;;;;;;;20.15;12.02;;;5.80;91.70;;;;;;5010215;28;20037;-57
2020/12/10 03:49:04;;;;;;;27.83;12.63;;;5.80;91.70;;;;;;5007723;28;20026;-57
2020/12/10 03:51:29;;;;;;;24.98;12.85;;;5.80;91.70;;;;;;5007887;28;20034;-57
2020/12/10 03:53:55;;;;;;;28.83;14.40;;;5.80;91.70;;;;;;5010214;28;20062;-57
2020/12/10 03:56:20;;;;;;;25.70;12.65;;;5.80;91.70;;;;;;5007403;28;20525;-56
2020/12/10 03:58:46;;;;;;;23.10;13.02;;;5.80;91.70;;;;;;5028195;28;20034;-57
2020/12/10 04:01:11;;;;;;;17.85;11.63;;;5.80;91.70;;;;;;5008015;28;20030;-57
2020/12/10 04:03:37;;;;;;;26.70;12.55;;;5.80;91.70;;;;;;5012271;28;20063;-56
2020/12/10 04:06:02;;;;;;;24.73;13.18;;;5.70;91.70;;;;;;5004690;28;20639;-57
2020/12/10 04:08:28;;;;;;;27.75;12.55;;;5.70;91.70;;;;;;5004523;28;20113;-56
2020/12/10 04:10:53;;;;;;;33.47;11.68;;;5.70;91.70;;;;;;5007397;28;20029;-57
2020/12/10 04:13:19;;;;;;;24.70;12.35;;;5.70;91.70;;;;;;5005532;28;20492;-56
2020/12/10 04:15:44;;;;;;;30.60;12.23;;;5.80;91.80;;;;;;4991344;28;20044;-57
2020/12/10 04:18:10;;;;;;;29.80;13.75;;;5.70;91.70;;;;;;5007059;28;20042;-56
2020/12/10 04:20:35;;;;;;;32.85;13.32;;;5.70;91.70;;;;;;5007775;28;20050;-56
2020/12/10 04:23:01;;;;;;;28.13;12.27;;;5.70;91.70;;;;;;5007120;28;20041;-56
2020/12/10 04:25:26;;;;;;;25.80;12.05;;;5.70;91.70;;;;;;5013852;28;20034;-57
2020/12/10 04:27:52;;;;;;;27.48;12.48;;;5.70;91.70;;;;;;5013450;28;20034;-57
2020/12/10 04:30:21;;;;;;;32.45;12.80;;;5.70;91.70;;;;;;5007748;28;20029;-57
2020/12/10 04:32:47;;;;;;;29.17;11.40;;;5.70;91.60;;;;;;5003667;28;20017;-57
2020/12/10 04:35:12;;;;;;;45.85;11.63;;;5.70;91.60;;;;;;5005315;28;20124;-55
2020/12/10 04:37:38;;;;;;;33.40;11.57;;;5.80;91.60;;;;;;5023928;28;20120;-56
2020/12/10 04:40:03;;;;;;;28.80;10.70;;;5.80;91.60;;;;;;4990668;28;20105;-57
2020/12/10 04:42:29;;;;;;;31.77;12.15;;;5.80;91.60;;;;;;4990882;28;20088;-56
2020/12/10 04:44:54;;;;;;;33.38;12.05;;;5.80;91.50;;;;;;5013277;28;20025;-57
2020/12/10 04:47:20;;;;;;;37.83;12.77;;;5.80;91.70;;;;;;5011962;28;20042;-56
2020/12/10 04:49:46;;;;;;;29.98;11.77;;;5.80;91.70;;;;;;5004313;28;20022;-56
2020/12/10 04:52:12;;;;;;;28.50;11.35;;;5.80;91.80;;;;;;4991982;28;20017;-56
2020/12/10 04:54:37;;;;;;;21.55;11.13;;;5.70;91.70;;;;;;5010349;28;20560;-57
2020/12/10 04:57:03;;;;;;;28.75;12.63;;;5.70;91.70;;;;;;4990445;28;20575;-58
2020/12/10 04:59:28;;;;;;;29.45;12.40;;;5.70;91.80;;;;;;5004936;28;20030;-56
2020/12/10 05:01:56;;;;;;;25.92;11.75;;;5.70;91.70;;;;;;5007248;28;20033;-57
2020/12/10 05:04:23;;;;;;;23.83;11.38;;;5.70;91.80;;;;;;5011314;28;20050;-56
2020/12/10 05:06:49;;;;;;;20.63;11.35;;;5.70;91.80;;;;;;5007732;28;20104;-55
2020/12/10 05:09:15;;;;;;;25.35;12.63;;;5.70;91.70;;;;;;5007860;28;20025;-57
2020/12/10 05:11:40;;;;;;;20.52;11.13;;;5.70;91.70;;;;;;5010737;28;20121;-56
2020/12/10 05:14:06;;;;;;;20.10;11.10;;;5.70;91.70;;;;;;5010701;28;20046;-57
2020/12/10 05:16:31;;;;;;;25.50;11.80;;;5.70;91.70;;;;;;5026988;28;20033;-57
2020/12/10 05:19:16;;;;;;;18.27;11.40;;;5.70;91.70;;;;;;4989302;28;20104;-57
2020/12/10 05:21:41;;;;;;;21.67;10.73;;;5.70;91.60;;;;;;5006747;28;20026;-56
2020/12/10 05:24:20;;;;;;;22.25;10.55;;;5.80;91.70;;;;;;5006102;28;20032;-56
2020/12/10 05:26:45;;;;;;;20.63;10.60;;;5.70;91.60;;;;;;4975864;28;20030;-57
2020/12/10 05:29:11;;;;;;;25.83;10.48;;;5.70;91.60;;;;;;5009832;28;20386;-56
2020/12/10 05:31:36;;;;;;;24.95;11.50;;;5.70;91.60;;;;;;5022273;28;20313;-57
2020/12/10 05:34:02;;;;;;;21.90;10.95;;;5.70;91.60;;;;;;5008931;28;20133;-56
2020/12/10 05:36:33;;;;;;;21.45;10.85;;;5.70;91.60;;;;;;5008303;28;20060;-56
2020/12/10 05:39:03;;;;;;;17.55;9.98;;;5.70;91.60;;;;;;4988526;28;20041;-56
2020/12/10 05:41:30;;;;;;;28.33;10.88;;;5.70;91.50;;;;;;5008924;28;20394;-56
2020/12/10 05:43:55;;;;;;;21.48;10.20;;;5.70;91.50;;;;;;4988917;28;20026;-57
2020/12/10 05:46:23;;;;;;;14.05;9.35;;;5.70;91.50;;;;;;5006426;28;20026;-57
2020/12/10 05:48:49;;;;;;;21.40;9.95;;;5.70;91.50;;;;;;5006123;28;20060;-57
2020/12/10 05:51:16;;;;;;;20.13;9.98;;;5.70;91.50;;;;;;5009062;28;20100;-57
2020/12/10 05:53:42;;;;;;;17.77;8.95;;;5.70;91.50;;;;;;4980840;28;20072;-56
2020/12/10 05:56:10;;;;;;;21.10;9.30;;;5.70;91.40;;;;;;4991589;28;20462;-57
2020/12/10 05:58:48;;;;;;;21.13;9.80;;;5.70;91.30;;;;;;4989701;28;20084;-56
2020/12/10 06:01:27;;;;;;;19.77;9.75;;;5.70;91.40;;;;;;4988619;28;20354;-56
2020/12/10 06:03:53;;;;;;;21.05;9.23;;;5.70;91.30;;;;;;5004182;28;20038;-56
2020/12/10 06:06:22;;;;;;;16.88;10.25;;;5.70;91.30;;;;;;5004881;28;20070;-55
2020/12/10 06:08:49;;;;;;;19.83;9.63;;;5.70;91.30;;;;;;5009594;28;20025;-56
2020/12/10 06:11:18;;;;;;;18.35;9.05;;;5.70;91.30;;;;;;4989968;28;20469;-56
2020/12/10 06:13:44;;;;;;;17.20;9.27;;;5.70;91.20;;;;;;4990588;28;20091;-57
2020/12/10 06:16:17;;;;;;;16.58;9.10;;;5.70;91.20;;;;;;4969542;28;20474;-56
2020/12/10 06:19:02;;;;;;;17.98;8.95;;;5.70;91.20;;;;;;5001125;28;20504;-56
2020/12/10 06:21:32;;;;;;;13.13;8.32;;;5.70;91.10;;;;;;4990394;28;20105;-56
2020/12/10 06:23:58;;;;;;;20.30;8.85;;;5.70;91.10;;;;;;4989157;28;20045;-57
2020/12/10 06:26:23;;;;;;;17.95;8.88;;;5.70;91.10;;;;;;5005736;28;20054;-55
2020/12/10 06:28:49;;;;;;;24.73;8.68;;;5.70;91.10;;;;;;5006172;28;20030;-57
2020/12/10 06:31:15;;;;;;;23.20;9.13;;;5.70;91.10;;;;;;5020191;28;20112;-56
2020/12/10 06:33:43;;;;;;;36.65;9.35;;;5.70;91.10;;;;;;5004694;28;20043;-55
2020/12/10 06:36:18;;;;;;;28.02;9.65;;;5.60;91.10;;;;;;5020876;28;20030;-56
2020/12/10 06:38:44;;;;;;;24.98;9.35;;;5.60;91.20;;;;;;5005903;28;20529;-56
2020/12/10 06:41:09;;;;;;;30.70;9.88;;;5.60;91.10;;;;;;5003958;28;20121;-56
2020/12/10 06:43:36;;;;;;;22.27;8.63;;;5.70;90.90;;;;;;5002901;28;20070;-56
2020/12/10 06:46:01;;;;;;;19.35;8.55;;;5.60;90.80;;;;;;5003773;28;20037;-56
2020/12/10 06:48:41;;;;;;;25.88;8.48;;;5.70;90.90;;;;;;5010919;28;20373;-56
2020/12/10 06:51:17;;;;;;;16.63;8.82;;;5.60;90.90;;;;;;4993488;28;20461;-56
2020/12/10 06:54:12;;;;;;;17.95;8.25;;;5.60;90.80;;;;;;5007960;28;20100;-56
2020/12/10 06:56:58;;;;;;;22.98;9.50;;;5.70;90.80;;;;;;5008723;28;20046;-57
2020/12/10 06:59:36;;;;;;;;;;;5.70;90.90;;;;;;4990482;28;20037;-56
2020/12/10 07:02:12;;;;;;;23.80;8.35;;;5.60;90.90;;;;;;5007545;28;19921;-56
2020/12/10 07:04:47;;;;;;;17.33;9.43;;;5.60;90.90;;;;;;4996561;28;20045;-56
2020/12/10 07:07:17;;;;;;;24.33;9.00;;;5.60;90.90;;;;;;5011682;28;20075;-57
2020/12/10 07:09:52;;;;;;;19.33;8.63;;;5.60;90.90;;;;;;5006127;28;20026;-56
2020/12/10 07:12:36;;;;;;;19.58;9.13;;;5.60;90.90;;;;;;5006801;28;20092;-56
2020/12/10 07:15:23;;;;;;;21.02;8.43;;;5.60;90.90;;;;;;5007616;28;20054;-56
2020/12/10 07:17:49;;;;;;;20.45;8.60;;;5.60;90.90;;;;;;5008171;28;20067;-56
2020/12/10 07:20:15;;;;;;;22.40;8.60;;;5.60;90.80;;;;;;5003485;28;20033;-57
2020/12/10 07:22:40;;;;;;;14.77;8.15;;;5.60;90.80;;;;;;5007023;28;20076;-56
2020/12/10 07:25:06;;;;;;;15.60;8.80;;;5.60;90.80;;;;;;5005763;28;20030;-56
2020/12/10 07:27:32;;;;;;;20.80;8.93;;;5.60;90.80;;;;;;5007094;28;20119;-56
2020/12/10 07:29:57;;;;;;;17.88;7.97;;;5.60;90.80;;;;;;4991389;28;20072;-57
2020/12/10 07:32:23;;;;;;;20.60;8.00;;;5.60;90.70;;;;;;5009134;28;20030;-57
2020/12/10 07:34:48;;;;;;;31.40;9.68;;;5.60;90.70;;;;;;5007304;28;20581;-57
2020/12/10 07:37:14;;;;;;;35.72;9.55;;;5.60;90.70;;;;;;5013834;28;20038;-56
2020/12/10 07:39:40;;;;;;;33.05;9.45;;;5.60;90.60;;;;;;4990537;28;20525;-56
2020/12/10 07:42:06;;;;;;;31.55;10.15;;;5.60;90.50;;;;;;4997142;28;21307;-56
2020/12/10 07:44:32;;;;;;;24.98;9.82;;;5.60;90.50;;;;;;5022280;28;20034;-56
2020/12/10 07:46:58;;;;;;;34.92;9.68;;;5.60;90.40;;;;;;5014827;28;20057;-57
2020/12/10 07:49:27;;;;;;;26.83;9.18;;;5.60;90.40;;;;;;4990220;28;20103;-56
2020/12/10 07:52:12;;;;;;;27.77;9.07;;;5.60;90.40;;;;;;5007561;28;20033;-56
2020/12/10 07:54:46;;;;;;;30.10;9.45;;;5.60;90.40;;;;;;5001762;28;20091;-57
2020/12/10 07:57:30;;;;;;;29.35;9.43;;;5.50;90.40;;;;;;5008136;28;20030;-56
2020/12/10 07:59:57;;;;;;;34.00;9.52;;;5.50;90.40;;;;;;4985941;28;20030;-56
2020/12/10 08:02:41;;;;;;;26.70;9.02;;;5.50;90.40;;;;;;4999395;28;20037;-57
2020/12/10 08:05:16;;;;;;;31.30;9.10;;;5.50;90.40;;;;;;4985700;28;20042;-56
2020/12/10 08:07:46;;;;;;;27.52;9.02;;;5.50;90.30;;;;;;5006569;28;20104;-57
2020/12/10 08:10:27;;;;;;;20.88;9.35;;;5.50;90.30;;;;;;5011147;28;20363;-57
2020/12/10 08:13:12;;;;;;;18.50;8.95;;;5.50;90.20;;;;;;4996474;28;20400;-56
2020/12/10 08:15:39;;;;;;;21.80;8.73;;;5.50;90.20;;;;;;5000957;28;20030;-55
2020/12/10 08:18:05;;;;;;;20.73;9.13;;;5.40;90.20;;;;;;4987277;28;20478;-56
2020/12/10 08:20:45;;;;;;;16.42;8.70;;;5.50;90.20;;;;;;5019443;28;20041;-56
2020/12/10 08:23:11;;;;;;;21.85;8.80;;;5.50;90.10;;;;;;5004364;28;20136;-56
2020/12/10 08:25:38;;;;;;;13.13;8.98;;;5.40;90.10;;;;;;5010243;28;20044;-56
2020/12/10 08:28:07;;;;;;;23.42;8.70;;;5.40;90.00;;;;;;4992463;28;20466;-56
2020/12/10 08:30:33;;;;;;;32.40;9.20;;;5.40;90.00;;;;;;5002976;28;20037;-55
2020/12/10 08:32:59;;;;;;;19.48;9.10;;;5.40;90.00;;;;;;5019666;28;20046;-56
2020/12/10 08:35:25;;;;;;;22.17;8.70;;;5.40;90.00;;;;;;4998338;28;20029;-56
2020/12/10 08:37:50;;;;;;;17.55;8.77;;;5.40;90.10;;;;;;5011588;28;20036;-57
2020/12/10 08:40:26;;;;;;;23.13;9.48;;;5.40;90.10;;;;;;5012704;28;20449;-56
2020/12/10 08:42:52;;;;;;;17.10;9.07;;;5.40;90.00;;;;;;5005079;28;20037;-56
2020/12/10 08:45:31;;;;;;;20.20;9.15;;;5.40;89.90;;;;;;5014283;28;20042;-57
2020/12/10 08:47:58;;;;;;;18.92;9.50;;;5.40;89.80;;;;;;5005950;28;20041;-56
2020/12/10 08:52:58;;;;;;;23.23;10.07;;;5.40;90.00;;;;;;5000902;28;20475;-55
2020/12/10 08:55:27;;;;;;;21.95;9.90;;;5.40;90.00;;;;;;5005269;28;20033;-56
2020/12/10 08:57:52;;;;;;;23.27;8.98;;;5.40;90.00;;;;;;5002971;28;20053;-56
2020/12/10 09:00:18;;;;;;;18.70;9.68;;;5.40;90.00;;;;;;5002731;28;20037;-57
2020/12/10 09:02:43;;;;;;;19.40;9.18;;;5.40;90.00;;;;;;5000353;28;20057;-56
2020/12/10 09:05:09;;;;;;;18.63;8.80;;;5.40;90.10;;;;;;5001515;28;20037;-55
2020/12/10 09:07:35;;;;;;;15.20;9.35;;;5.40;90.10;;;;;;4988778;28;20021;-56
2020/12/10 09:10:05;;;;;;;12.85;9.65;;;5.40;90.10;;;;;;5018301;28;20044;-56
2020/12/10 09:12:30;;;;;;;18.40;10.07;;;5.40;90.10;;;;;;5005430;28;20485;-56
2020/12/10 09:14:56;;;;;;;19.25;10.00;;;5.50;90.10;;;;;;5003752;28;20038;-55
2020/12/10 09:17:22;;;;;;;18.15;9.60;;;5.50;90.00;;;;;;5021059;28;20078;-57
2020/12/10 09:19:47;;;;;;;22.77;10.38;;;5.50;90.10;;;;;;5003140;28;20712;-57
2020/12/10 09:22:12;;;;;;;30.50;10.90;;;5.50;90.10;;;;;;5002658;28;20069;-56
2020/12/10 09:24:38;;;;;;;44.45;11.45;;;5.50;90.40;;;;;;4986424;28;20494;-56
2020/12/10 09:27:07;;;;;;;39.90;11.23;;;5.50;90.10;;;;;;5007128;28;20056;-57
2020/12/10 09:29:33;;;;;;;40.88;11.57;;;5.50;90.10;;;;;;5005939;28;20036;-56
2020/12/10 09:31:59;;;;;;;41.00;12.30;;;5.50;90.10;;;;;;5002957;28;20073;-56
2020/12/10 09:34:24;;;;;;;50.28;12.35;;;5.60;90.10;;;;;;5005266;28;21287;-57
2020/12/10 09:36:50;;;;;;;23.08;9.68;;;5.60;90.10;;;;;;5003523;28;20567;-56
2020/12/10 09:39:15;;;;;;;40.47;11.75;;;5.60;90.10;;;;;;5004902;28;20500;-56
2020/12/10 09:41:43;;;;;;;43.88;12.20;;;5.60;90.00;;;;;;5005557;28;20033;-55
2020/12/10 09:44:09;;;;;;;56.55;12.35;;;5.60;90.00;;;;;;5004009;28;20525;-56
2020/12/10 09:46:34;;;;;;;38.45;11.15;;;5.60;90.00;;;;;;5003287;28;20053;-57
2020/12/10 09:49:00;;;;;;;30.80;10.43;;;5.60;90.00;;;;;;4999781;28;20083;-56
2020/12/10 09:51:29;;;;;;;54.85;10.05;;;5.60;90.00;;;;;;5003635;28;21515;-56
2020/12/10 09:54:05;;;;;;;80.90;13.43;;;5.60;89.80;;;;;;5008094;28;20117;-57
2020/12/10 09:59:23;;;;;;;56.58;11.60;;;5.70;89.80;;;;;;4984737;28;20395;-56
2020/12/10 10:01:49;;;;;;;55.10;12.82;;;5.60;89.70;;;;;;4985886;28;20453;-56
2020/12/10 10:04:15;;;;;;;45.45;13.63;;;5.70;89.70;;;;;;4986145;28;659338;-56
2020/12/10 10:06:42;;;;;;;61.78;12.80;;;5.60;89.70;;;;;;5004736;28;20026;-56
2020/12/10 10:09:08;;;;;;;55.38;12.13;;;5.70;89.80;;;;;;5010471;28;20336;-56
2020/12/10 10:11:33;;;;;;;60.13;13.20;;;5.70;89.70;;;;;;5016610;28;20426;-56
2020/12/10 10:13:59;;;;;;;52.92;12.90;;;5.70;89.80;;;;;;5000936;28;20191;-56
2020/12/10 10:16:33;;;;;;;49.88;11.75;;;5.70;89.70;;;;;;4999678;28;20462;-56
2020/12/10 10:18:59;;;;;;;59.30;12.50;;;5.70;90.10;;;;;;5004295;28;20470;-56
2020/12/10 10:21:27;;;;;;;41.45;11.43;;;5.70;89.70;;;;;;4988114;28;20120;-55
2020/12/10 10:23:53;;;;;;;38.08;11.13;;;5.70;89.70;;;;;;5004509;28;20478;-56
2020/12/10 10:26:19;;;;;;;33.70;11.85;;;5.70;90.10;;;;;;5009708;28;20042;-56
2020/12/10 10:28:47;;;;;;;34.60;12.02;;;5.70;89.60;;;;;;5007057;28;20042;-56
2020/12/10 10:31:12;;;;;;;60.10;12.68;;;5.70;89.60;;;;;;5008051;28;20456;-56
2020/12/10 10:33:38;;;;;;;48.05;10.75;;;5.70;89.50;;;;;;5007749;28;20120;-56
2020/12/10 10:36:03;;;;;;;36.92;11.32;;;5.70;89.50;;;;;;5008413;28;20034;-57
2020/12/10 10:38:29;;;;;;;66.15;13.40;;;5.70;89.50;;;;;;5022441;28;20048;-56
2020/12/10 10:40:55;;;;;;;35.40;11.65;;;5.70;89.70;;;;;;5002540;28;20038;-56
2020/12/10 10:43:20;;;;;;;44.85;12.32;;;5.70;90.10;;;;;;5007230;28;20036;-56
2020/12/10 10:45:46;;;;;;;41.60;11.65;;;5.70;89.90;;;;;;5008124;28;20117;-58
2020/12/10 10:48:11;;;;;;;53.42;13.85;;;5.70;89.70;;;;;;4996003;28;20612;-56
2020/12/10 10:50:37;;;;;;;51.92;13.25;;;5.70;89.80;;;;;;4989302;28;20457;-58
2020/12/10 10:53:02;;;;;;;60.20;13.68;;;5.70;89.90;;;;;;5006403;28;20605;-56
2020/12/10 10:55:28;;;;;;;63.53;13.65;;;5.70;89.80;;;;;;5006528;28;20592;-57
2020/12/10 10:57:53;;;;;;;48.70;12.07;;;5.70;90.10;;;;;;5008375;28;20054;-57
2020/12/10 11:00:19;;;;;;;58.50;13.57;;;5.70;89.70;;;;;;5009091;28;20030;-57
2020/12/10 11:02:45;;;;;;;57.75;13.52;;;5.70;89.80;;;;;;5022651;28;20152;-57
2020/12/10 11:05:11;;;;;;;50.95;12.57;;;5.70;89.90;;;;;;5004247;28;20038;-56
2020/12/10 11:07:37;;;;;;;51.20;13.27;;;5.80;89.70;;;;;;4999681;28;20042;-57
2020/12/10 11:10:03;;;;;;;54.75;14.60;;;5.70;89.60;;;;;;5000525;28;20085;-56
2020/12/10 11:12:29;;;;;;;57.83;14.13;;;5.70;89.70;;;;;;5004782;28;20108;-56
2020/12/10 11:14:54;;;;;;;51.05;14.52;;;5.70;89.50;;;;;;5005757;28;20247;-56
2020/12/10 11:17:20;;;;;;;46.75;12.85;;;5.70;89.60;;;;;;5005140;28;20398;-57
2020/12/10 11:19:45;;;;;;;45.63;14.35;;;5.80;89.90;;;;;;5004930;28;20069;-56
2020/12/10 11:22:11;;;;;;;36.40;13.50;;;5.80;89.70;;;;;;5021360;28;20481;-57
2020/12/10 11:24:36;;;;;;;67.68;14.35;;;5.70;89.50;;;;;;5002611;28;20029;-56
2020/12/10 11:27:02;;;;;;;51.17;14.38;;;5.70;89.60;;;;;;5003876;28;20085;-57
2020/12/10 11:29:27;;;;;;;50.13;14.55;;;5.80;89.80;;;;;;5001738;28;20032;-56
2020/12/10 11:31:54;;;;;;;46.15;14.60;;;5.80;89.80;;;;;;4994985;28;20030;-56
2020/12/10 11:34:19;;;;;;;55.63;16.42;;;5.40;89.50;;;;;;5004349;28;20521;-56
2020/12/10 11:36:45;;;;;;;55.17;15.15;;;5.80;89.70;;;;;;5005424;28;20061;-56
2020/12/10 11:39:11;;;;;;;52.92;15.15;;;5.80;89.60;;;;;;5005170;28;20438;-56
2020/12/10 11:41:37;;;;;;;56.85;15.55;;;5.80;89.60;;;;;;5003749;28;20041;-56
2020/12/10 11:44:02;;;;;;;43.13;14.10;;;5.80;89.70;;;;;;5001966;28;20120;-56
2020/12/10 11:46:28;;;;;;;52.78;15.10;;;5.80;89.80;;;;;;5004095;28;20565;-56
2020/12/10 11:48:53;;;;;;;53.03;16.40;;;5.80;89.90;;;;;;4998118;28;20021;-56
2020/12/10 11:51:19;;;;;;;44.30;14.23;;;5.80;90.00;;;;;;5004780;28;20038;-56
2020/12/10 11:53:45;;;;;;;66.00;15.30;;;5.90;90.30;;;;;;5004043;28;20076;-57
2020/12/10 11:56:11;;;;;;;67.95;16.60;;;5.90;90.00;;;;;;5005031;28;20481;-61
2020/12/10 11:58:36;;;;;;;75.63;17.02;;;5.90;90.00;;;;;;5001536;28;20022;-56
2020/12/10 12:01:02;;;;;;;75.65;16.30;;;5.90;90.00;;;;;;5004091;28;20085;-56
2020/12/10 12:03:27;;;;;;;59.47;16.25;;;5.90;90.00;;;;;;4988975;28;20050;-56
2020/12/10 12:05:53;;;;;;;53.38;15.18;;;5.90;89.80;;;;;;5021753;28;20027;-56
2020/12/10 12:08:24;;;;;;;55.35;16.50;;;5.90;89.70;;;;;;4983617;28;20038;-57
2020/12/10 12:10:50;;;;;;;48.70;16.08;;;5.90;89.60;;;;;;5004664;28;20326;-57
2020/12/10 12:13:15;;;;;;;48.67;16.77;;;5.90;89.70;;;;;;5011243;28;20429;-56
2020/12/10 12:15:41;;;;;;;48.25;15.82;;;5.90;89.70;;;;;;5004744;28;20046;-56
2020/12/10 12:18:06;;;;;;;49.58;16.48;;;5.90;89.80;;;;;;4985789;28;20034;-57
2020/12/10 12:20:32;;;;;;;63.30;18.63;;;5.90;89.90;;;;;;5004223;28;20069;-56
2020/12/10 12:22:57;;;;;;;58.83;17.95;;;5.90;89.90;;;;;;5001789;28;20370;-56
2020/12/10 12:25:23;;;;;;;61.13;18.02;;;5.90;90.10;;;;;;4996202;28;20056;-57
2020/12/10 12:27:48;;;;;;;61.78;17.45;;;5.90;90.10;;;;;;5017053;28;20715;-57
2020/12/10 12:30:14;;;;;;;449.17;48.42;;;6.00;90.00;;;;;;5006556;28;20034;-56
2020/12/10 12:32:39;;;;;;;94.47;21.50;;;5.90;90.10;;;;;;4996661;28;20501;-56
2020/12/10 12:35:05;;;;;;;100.15;19.42;;;5.90;90.00;;;;;;5000768;28;20469;-56
2020/12/10 12:37:30;;;;;;;64.15;16.85;;;5.90;90.00;;;;;;5002094;28;20093;-57
2020/12/10 12:39:56;;;;;;;52.95;16.70;;;5.90;89.90;;;;;;5000422;28;20030;-56
2020/12/10 12:42:21;;;;;;;47.78;15.82;;;5.90;90.00;;;;;;5003780;28;20087;-57
2020/12/10 12:44:47;;;;;;;53.88;17.58;;;5.90;90.00;;;;;;4984119;28;20109;-56